Time;durP1;ratioP1;P1;durP2;ratioP2;P2;SDS_P1;SDS_P2;PMS_P1;PMS_P2;Temp;Humidity;BMP_temperature;BMP_pressure;BME280_temperature;BME280_humidity;BME280_pressure;Samples;Min_cycle;Max_cycle;Signal;HPM_P1;HPM_P2
2021/06/02 00:01:53;;;;;;;4.45;2.58;;;;;23.80;101438.00;;;;5081864;28;20682;-79
2021/06/02 00:04:22;;;;;;;4.75;2.28;;;;;23.80;101433.00;;;;5082568;28;20707;-79
2021/06/02 00:06:51;;;;;;;2.83;2.38;;;;;23.70;101434.00;;;;5087678;28;20221;-79
2021/06/02 00:09:19;;;;;;;3.25;2.72;;;;;23.60;101439.00;;;;5079472;28;20218;-79
2021/06/02 00:11:46;;;;;;;3.22;2.65;;;;;23.60;101426.00;;;;5070740;28;20691;-79
2021/06/02 00:14:13;;;;;;;3.40;2.45;;;;;23.60;101426.00;;;;5072080;28;20187;-79
2021/06/02 00:16:40;;;;;;;2.35;2.15;;;;;23.50;101429.00;;;;5071859;28;20211;-78
2021/06/02 00:19:08;;;;;;;4.00;2.80;;;;;23.50;101433.00;;;;5083347;28;20255;-78
2021/06/02 00:21:36;;;;;;;4.03;2.50;;;;;23.40;101437.00;;;;5090099;28;20221;-79
2021/06/02 00:24:04;;;;;;;3.42;3.10;;;;;23.40;101425.00;;;;5081810;28;20191;-79
2021/06/02 00:26:34;;;;;;;3.20;2.75;;;;;23.30;101425.00;;;;5080380;28;20229;-79
2021/06/02 00:29:03;;;;;;;4.07;2.95;;;;;23.30;101427.00;;;;5091860;28;20206;-78
2021/06/02 00:31:31;;;;;;;3.65;2.67;;;;;23.30;101429.00;;;;5091149;28;20726;-79
2021/06/02 00:33:58;;;;;;;5.72;3.10;;;;;23.20;101423.00;;;;5079544;28;20252;-79
2021/06/02 00:36:26;;;;;;;3.00;2.47;;;;;23.20;101428.00;;;;5070953;28;20692;-79
2021/06/02 00:38:53;;;;;;;3.20;2.85;;;;;23.20;101426.00;;;;5073899;28;20700;-78
2021/06/02 00:41:21;;;;;;;3.75;2.72;;;;;23.10;101425.00;;;;5091405;28;20282;-78
2021/06/02 00:43:50;;;;;;;5.10;3.03;;;;;23.10;101427.00;;;;5085251;28;20211;-78
2021/06/02 00:46:19;;;;;;;5.60;3.15;;;;;23.10;101421.00;;;;5071565;28;20226;-79
2021/06/02 00:48:46;;;;;;;3.53;2.95;;;;;23.00;101425.00;;;;5077074;28;20629;-79
2021/06/02 00:51:13;;;;;;;3.38;2.83;;;;;23.00;101417.00;;;;5081635;28;20198;-78
2021/06/02 00:53:40;;;;;;;4.07;3.40;;;;;23.00;101422.00;;;;5085740;28;20191;-78
2021/06/02 00:56:08;;;;;;;3.78;3.30;;;;;22.90;101414.00;;;;5071471;28;20191;-78
2021/06/02 00:58:42;;;;;;;3.75;2.88;;;;;22.90;101410.00;;;;5071007;28;20199;-78
2021/06/02 01:01:11;;;;;;;3.83;3.05;;;;;22.90;101409.00;;;;5071511;28;20286;-78
2021/06/02 01:03:39;;;;;;;6.03;3.00;;;;;22.80;101404.00;;;;5079327;28;20679;-78
2021/06/02 01:06:07;;;;;;;3.40;3.03;;;;;22.80;101400.00;;;;5088168;28;20210;-78
2021/06/02 01:08:36;;;;;;;5.95;3.33;;;;;22.80;101397.00;;;;5090484;28;20570;-78
2021/06/02 01:11:04;;;;;;;4.38;3.30;;;;;22.80;101402.00;;;;5087354;28;20299;-78
2021/06/02 01:13:36;;;;;;;5.85;3.22;;;;;22.70;101404.00;;;;5070703;28;20232;-78
2021/06/02 01:16:04;;;;;;;5.22;3.45;;;;;22.70;101400.00;;;;5070631;28;20190;-78
2021/06/02 01:18:35;;;;;;;5.60;3.42;;;;;22.60;101401.00;;;;5079302;28;20664;-78
2021/06/02 01:21:09;;;;;;;4.28;3.22;;;;;22.60;101401.00;;;;5070716;28;20662;-78
2021/06/02 01:23:38;;;;;;;6.80;3.63;;;;;22.60;101398.00;;;;5075134;28;20206;-78
2021/06/02 01:26:05;;;;;;;3.63;3.00;;;;;22.50;101402.00;;;;5077818;28;20224;-78
2021/06/02 01:28:32;;;;;;;4.82;3.20;;;;;22.50;101397.00;;;;5090057;28;20522;-80
2021/06/02 01:30:59;;;;;;;4.75;3.22;;;;;22.50;101403.00;;;;5072123;28;20222;-80
2021/06/02 01:33:56;;;;;;;3.80;3.42;;;;;22.30;101406.00;;;;5074743;28;20240;-79
2021/06/02 01:36:32;;;;;;;7.40;3.65;;;;;22.40;101406.00;;;;5066123;28;20684;-78
2021/06/02 01:39:33;;;;;;;7.25;3.63;;;;;22.20;101407.00;;;;5083323;28;20653;-79
2021/06/02 01:42:19;;;;;;;3.85;3.50;;;;;22.20;101406.00;;;;5068508;28;20194;-79
2021/06/02 01:45:31;;;;;;;6.95;4.15;;;;;22.10;101407.00;;;;5069341;28;20242;-79
2021/06/02 01:48:30;;;;;;;4.18;3.72;;;;;22.10;101404.00;;;;5069222;28;20205;-79
2021/06/02 01:51:25;;;;;;;4.57;3.47;;;;;22.00;101402.00;;;;5075086;28;20572;-79
2021/06/02 01:54:30;;;;;;;4.68;4.00;;;;;22.00;101397.00;;;;5076092;28;20202;-78
2021/06/02 01:57:26;;;;;;;5.00;3.83;;;;;22.00;101403.00;;;;5070069;28;20199;-79
2021/06/02 02:00:21;;;;;;;6.25;3.63;;;;;22.00;101396.00;;;;5070164;28;20275;-79
2021/06/02 02:03:33;;;;;;;5.10;3.53;;;;;21.90;101404.00;;;;5076492;28;20252;-79
2021/06/02 02:06:45;;;;;;;5.75;4.10;;;;;21.90;101401.00;;;;5047254;28;20259;-79
2021/06/02 02:09:19;;;;;;;4.93;3.67;;;;;22.00;101399.00;;;;5089566;28;20214;-79
2021/06/02 02:11:47;;;;;;;4.75;3.60;;;;;22.00;101396.00;;;;5070896;28;20225;-79
2021/06/02 02:14:42;;;;;;;6.10;4.28;;;;;21.90;101404.00;;;;5069644;28;20195;-79
2021/06/02 02:17:49;;;;;;;6.35;3.92;;;;;21.80;101394.00;;;;5070960;28;20199;-80
2021/06/02 02:20:22;;;;;;;6.35;4.65;;;;;21.90;101398.00;;;;5086797;28;20637;-79
2021/06/02 02:23:18;;;;;;;5.85;4.38;;;;;21.80;101387.00;;;;5089403;28;20202;-79
2021/06/02 02:25:53;;;;;;;4.57;4.03;;;;;21.90;101394.00;;;;5084999;28;20201;-79
2021/06/02 02:28:58;;;;;;;6.60;4.10;;;;;21.80;101395.00;;;;5068426;28;20703;-80
2021/06/02 02:31:43;;;;;;;5.78;3.92;;;;;21.80;101387.00;;;;5062465;28;20206;-79
2021/06/02 02:34:20;;;;;;;4.95;4.45;;;;;21.90;101385.00;;;;5080645;28;20289;-80
2021/06/02 02:36:53;;;;;;;5.10;4.53;;;;;21.90;101387.00;;;;5073437;28;20225;-79
2021/06/02 02:39:28;;;;;;;5.90;3.85;;;;;21.90;101382.00;;;;5068803;28;20199;-80
2021/06/02 02:42:03;;;;;;;5.78;4.35;;;;;21.90;101370.00;;;;5069598;28;20256;-79
2021/06/02 02:44:47;;;;;;;5.63;4.60;;;;;21.80;101377.00;;;;5078527;28;21096;-79
2021/06/02 02:47:17;;;;;;;4.70;3.92;;;;;22.00;101372.00;;;;5087799;28;20249;-79
2021/06/02 02:49:55;;;;;;;6.55;4.10;;;;;22.00;101372.00;;;;5069007;28;20198;-79
2021/06/02 02:52:31;;;;;;;5.20;4.13;;;;;22.00;101367.00;;;;5082107;28;20191;-79
2021/06/02 02:55:07;;;;;;;6.03;3.92;;;;;22.00;101377.00;;;;5070653;28;20198;-80
2021/06/02 02:57:39;;;;;;;5.55;4.35;;;;;22.00;101370.00;;;;5068589;28;20190;-80
2021/06/02 03:00:11;;;;;;;5.68;4.13;;;;;22.00;101365.00;;;;5068210;28;20202;-80
2021/06/02 03:02:44;;;;;;;5.63;4.32;;;;;22.00;101370.00;;;;5069193;28;20465;-80
2021/06/02 03:05:15;;;;;;;4.82;4.32;;;;;22.00;101364.00;;;;5078775;28;20282;-79
2021/06/02 03:07:48;;;;;;;6.38;3.78;;;;;22.00;101362.00;;;;5068418;28;20223;-79
2021/06/02 03:10:16;;;;;;;5.78;4.13;;;;;22.10;101357.00;;;;5068499;28;21057;-80
2021/06/02 03:12:55;;;;;;;8.73;3.78;;;;;22.00;101366.00;;;;5081775;28;20210;-79
2021/06/02 03:15:40;;;;;;;5.28;4.43;;;;;21.90;101366.00;;;;5088251;28;20656;-80
2021/06/02 03:18:18;;;;;;;5.10;4.38;;;;;22.00;101355.00;;;;5086926;28;20186;-79
2021/06/02 03:20:55;;;;;;;5.03;4.13;;;;;22.00;101358.00;;;;5087986;28;20190;-79
2021/06/02 03:23:35;;;;;;;4.65;3.60;;;;;22.00;101355.00;;;;5088143;28;20263;-79
2021/06/02 03:26:06;;;;;;;5.05;4.35;;;;;22.10;101351.00;;;;5084603;28;20198;-79
2021/06/02 03:28:50;;;;;;;6.00;4.35;;;;;22.00;101357.00;;;;5068368;28;20665;-79
2021/06/02 03:31:28;;;;;;;4.20;3.35;;;;;22.00;101352.00;;;;5067881;28;20696;-79
2021/06/02 03:34:24;;;;;;;5.20;4.05;;;;;22.00;101358.00;;;;5067733;28;20203;-79
2021/06/02 03:37:10;;;;;;;4.88;3.47;;;;;22.00;101359.00;;;;5067801;28;20219;-79
2021/06/02 03:39:49;;;;;;;4.38;3.75;;;;;22.00;101358.00;;;;5067232;28;20198;-79
2021/06/02 03:42:35;;;;;;;4.93;3.65;;;;;22.00;101356.00;;;;5067829;28;20194;-79
2021/06/02 03:45:18;;;;;;;5.63;3.53;;;;;22.00;101366.00;;;;5068482;28;20637;-79
2021/06/02 03:47:58;;;;;;;5.90;3.67;;;;;22.00;101371.00;;;;5069537;28;20728;-79
2021/06/02 03:50:28;;;;;;;5.63;4.30;;;;;22.00;101380.00;;;;5068796;28;20191;-79
2021/06/02 03:53:17;;;;;;;5.57;4.55;;;;;21.90;101373.00;;;;5087485;28;20654;-80
2021/06/02 03:55:49;;;;;;;4.50;3.67;;;;;22.00;101371.00;;;;5085627;28;20202;-79
2021/06/02 03:58:40;;;;;;;4.68;4.15;;;;;21.80;101378.00;;;;5085455;28;20210;-80
2021/06/02 04:01:15;;;;;;;6.07;4.40;;;;;21.90;101371.00;;;;5085773;28;20210;-80
2021/06/02 04:04:00;;;;;;;6.38;5.03;;;;;21.80;101371.00;;;;5076221;28;20201;-79
2021/06/02 04:06:33;;;;;;;5.55;4.15;;;;;21.90;101372.00;;;;5070521;28;20210;-79
2021/06/02 04:09:08;;;;;;;6.95;4.18;;;;;21.90;101370.00;;;;5086619;28;20202;-79
2021/06/02 04:11:42;;;;;;;6.78;4.90;;;;;21.90;101372.00;;;;5076913;28;20267;-79
2021/06/02 04:14:09;;;;;;;5.22;4.72;;;;;22.00;101374.00;;;;5067726;28;20573;-79
2021/06/02 04:16:37;;;;;;;5.75;4.28;;;;;22.00;101371.00;;;;5067143;28;20735;-79
2021/06/02 04:19:07;;;;;;;6.28;4.82;;;;;22.00;101372.00;;;;5079158;28;20210;-79
2021/06/02 04:21:36;;;;;;;7.38;5.22;;;;;22.00;101378.00;;;;5087747;28;20186;-79
2021/06/02 04:24:05;;;;;;;4.60;4.20;;;;;22.00;101373.00;;;;5087281;28;20660;-80
2021/06/02 04:26:34;;;;;;;6.78;4.65;;;;;22.10;101367.00;;;;5077985;28;20215;-79
2021/06/02 04:29:04;;;;;;;5.88;5.28;;;;;22.10;101366.00;;;;5067836;28;20408;-79
2021/06/02 04:31:31;;;;;;;5.85;4.72;;;;;22.20;101371.00;;;;5067564;28;20249;-79
2021/06/02 04:34:00;;;;;;;10.77;5.47;;;;;22.20;101374.00;;;;5067538;28;20198;-79
2021/06/02 04:36:29;;;;;;;5.90;4.60;;;;;22.20;101371.00;;;;5067585;28;20669;-79
2021/06/02 04:38:58;;;;;;;7.07;5.15;;;;;22.30;101374.00;;;;5067073;28;20244;-79
2021/06/02 04:41:27;;;;;;;6.07;4.85;;;;;22.30;101374.00;;;;5071277;28;20538;-79
2021/06/02 04:43:56;;;;;;;5.65;5.15;;;;;22.30;101367.00;;;;5066676;28;20202;-79
2021/06/02 04:46:23;;;;;;;6.63;5.28;;;;;22.40;101365.00;;;;5066689;28;20707;-79
2021/06/02 04:48:51;;;;;;;8.35;5.28;;;;;22.40;101364.00;;;;5065953;28;20195;-80
2021/06/02 04:52:01;;;;;;;6.72;5.05;;;;;22.30;101360.00;;;;5079008;28;20190;-79
2021/06/02 04:55:14;;;;;;;6.38;4.90;;;;;22.40;101367.00;;;;5050983;28;20197;-79
2021/06/02 04:58:08;;;;;;;7.78;5.03;;;;;22.40;101366.00;;;;5085917;28;20618;-80
2021/06/02 05:01:17;;;;;;;5.30;4.78;;;;;22.40;101369.00;;;;5082422;28;20214;-80
2021/06/02 05:04:19;;;;;;;6.05;5.18;;;;;22.50;101378.00;;;;5080631;28;20200;-79
2021/06/02 05:07:20;;;;;;;6.68;4.53;;;;;22.50;101374.00;;;;5103052;28;20224;-80
2021/06/02 05:10:37;;;;;;;12.50;5.47;;;;;22.60;101365.00;;;;5097664;28;20225;-79
2021/06/02 05:13:34;;;;;;;10.32;5.82;;;;;22.60;101371.00;;;;5089413;28;20190;-79
2021/06/02 05:16:32;;;;;;;6.72;4.97;;;;;22.70;101372.00;;;;5071600;28;20205;-80
2021/06/02 05:19:45;;;;;;;6.40;5.10;;;;;22.80;101368.00;;;;5070180;28;20203;-80
2021/06/02 05:22:42;;;;;;;5.90;5.32;;;;;22.80;101377.00;;;;5082753;28;20317;-79
2021/06/02 05:25:51;;;;;;;5.97;4.40;;;;;22.90;101374.00;;;;5043979;28;20199;-77
2021/06/02 05:28:51;;;;;;;5.63;4.65;;;;;22.90;101379.00;;;;5073105;28;20595;-79
2021/06/02 05:31:44;;;;;;;6.00;4.15;;;;;23.00;101374.00;;;;5070553;28;20598;-80
2021/06/02 05:34:48;;;;;;;5.93;4.53;;;;;23.10;101379.00;;;;5072468;28;20214;-79
2021/06/02 05:37:54;;;;;;;6.70;5.40;;;;;23.10;101373.00;;;;5040471;28;20221;-79
2021/06/02 05:40:45;;;;;;;6.43;5.00;;;;;23.20;101374.00;;;;5011371;28;20205;-78
2021/06/02 05:43:40;;;;;;;17.45;5.20;;;;;23.20;101372.00;;;;5086261;28;20212;-77
2021/06/02 05:46:43;;;;;;;6.70;5.10;;;;;23.30;101376.00;;;;5089779;28;20248;-77
2021/06/02 05:49:45;;;;;;;7.45;4.97;;;;;23.40;101379.00;;;;5062401;28;20660;-80
2021/06/02 05:52:38;;;;;;;6.65;4.93;;;;;23.50;101382.00;;;;5078421;28;20675;-81
2021/06/02 05:55:34;;;;;;;5.75;5.00;;;;;23.50;101380.00;;;;5072688;28;20198;-81
2021/06/02 05:58:41;;;;;;;8.45;4.53;;;;;23.60;101387.00;;;;5068339;28;20195;-80
2021/06/02 06:01:31;;;;;;;5.45;4.38;;;;;23.70;101390.00;;;;5029903;28;20205;-80
2021/06/02 06:04:24;;;;;;;8.63;5.30;;;;;23.80;101387.00;;;;5068660;28;20256;-80
2021/06/02 06:07:02;;;;;;;6.50;4.68;;;;;23.90;101379.00;;;;5068485;28;20224;-80
2021/06/02 06:09:58;;;;;;;5.65;5.10;;;;;23.90;101389.00;;;;5067666;28;20237;-79
2021/06/02 06:13:11;;;;;;;6.53;4.85;;;;;24.00;101384.00;;;;5068380;28;20203;-80
2021/06/02 06:16:26;;;;;;;6.93;5.18;;;;;24.10;101375.00;;;;5067330;28;20692;-79
2021/06/02 06:19:20;;;;;;;6.70;5.13;;;;;24.20;101378.00;;;;5057146;28;20264;-80
2021/06/02 06:22:05;;;;;;;6.90;4.78;;;;;24.30;101385.00;;;;5069585;28;20194;-79
2021/06/02 06:24:38;;;;;;;5.57;4.78;;;;;24.40;101380.00;;;;5068969;28;20225;-79
2021/06/02 06:27:11;;;;;;;5.05;4.55;;;;;24.50;101387.00;;;;5075224;28;20237;-79
2021/06/02 06:29:53;;;;;;;7.85;5.25;;;;;24.60;101386.00;;;;5073793;28;20202;-80
2021/06/02 06:32:21;;;;;;;6.63;4.82;;;;;24.70;101379.00;;;;5068324;28;20191;-81
2021/06/02 06:34:49;;;;;;;6.95;5.07;;;;;24.80;101380.00;;;;5070038;28;20297;-81
2021/06/02 06:37:18;;;;;;;5.70;4.40;;;;;24.90;101375.00;;;;5074428;28;20217;-81
2021/06/02 06:39:50;;;;;;;6.55;5.38;;;;;25.00;101370.00;;;;5073678;28;20206;-80
2021/06/02 06:42:20;;;;;;;5.30;4.47;;;;;25.10;101371.00;;;;5068930;28;20248;-81
2021/06/02 06:44:53;;;;;;;5.13;4.40;;;;;25.20;101368.00;;;;5077044;28;20199;-81
2021/06/02 06:47:21;;;;;;;5.82;4.75;;;;;25.30;101363.00;;;;5072969;28;20226;-80
2021/06/02 06:49:52;;;;;;;5.57;4.53;;;;;25.40;101371.00;;;;5083254;28;20267;-81
2021/06/02 06:52:23;;;;;;;6.88;4.60;;;;;25.50;101371.00;;;;5085682;28;20641;-80
2021/06/02 06:54:52;;;;;;;5.65;4.13;;;;;25.60;101365.00;;;;5088239;28;20270;-80
2021/06/02 06:57:20;;;;;;;5.18;4.35;;;;;25.70;101363.00;;;;5081668;28;20199;-81
2021/06/02 06:59:49;;;;;;;5.10;4.22;;;;;25.80;101365.00;;;;5073877;28;20256;-81
2021/06/02 07:02:16;;;;;;;5.75;4.10;;;;;25.90;101362.00;;;;5070337;28;20192;-80
2021/06/02 07:04:43;;;;;;;6.07;4.07;;;;;26.00;101363.00;;;;5065443;28;20203;-81
2021/06/02 07:07:11;;;;;;;7.35;4.15;;;;;26.10;101367.00;;;;5067141;28;20222;-80
2021/06/02 07:09:38;;;;;;;6.65;3.88;;;;;26.20;101364.00;;;;5068388;28;20218;-80
2021/06/02 07:12:06;;;;;;;6.47;4.05;;;;;26.30;101367.00;;;;5067637;28;20210;-79
2021/06/02 07:14:35;;;;;;;5.13;3.65;;;;;26.40;101366.00;;;;5073702;28;20198;-80
2021/06/02 07:17:05;;;;;;;5.13;3.60;;;;;26.50;101364.00;;;;5080202;28;20561;-80
2021/06/02 07:19:35;;;;;;;3.78;3.22;;;;;26.70;101365.00;;;;5067875;28;20199;-78
2021/06/02 07:22:03;;;;;;;5.20;4.05;;;;;26.80;101366.00;;;;5073302;28;20633;-78
2021/06/02 07:24:31;;;;;;;4.05;2.92;;;;;26.90;101349.00;;;;5076794;28;20249;-77
2021/06/02 07:26:59;;;;;;;4.40;3.28;;;;;27.00;101355.00;;;;5074621;28;20214;-77
2021/06/02 07:29:26;;;;;;;3.80;3.40;;;;;27.10;101356.00;;;;5072287;28;20582;-78
2021/06/02 07:31:53;;;;;;;5.07;3.40;;;;;27.20;101349.00;;;;5075288;28;20209;-79
2021/06/02 07:34:22;;;;;;;5.10;3.60;;;;;27.40;101359.00;;;;5074968;28;20561;-78
2021/06/02 07:36:49;;;;;;;5.78;3.58;;;;;27.50;101351.00;;;;5076492;28;20222;-78
2021/06/02 07:39:16;;;;;;;5.22;3.60;;;;;27.60;101351.00;;;;5072033;28;20191;-79
2021/06/02 07:41:42;;;;;;;3.85;3.45;;;;;27.80;101362.00;;;;5076336;28;20193;-79
2021/06/02 07:44:09;;;;;;;3.30;3.00;;;;;27.90;101365.00;;;;5069398;28;20244;-79
2021/06/02 07:46:36;;;;;;;3.72;3.33;;;;;28.00;101361.00;;;;5069999;28;20215;-79
2021/06/02 07:49:04;;;;;;;3.95;3.55;;;;;28.10;101363.00;;;;5083975;28;20198;-79
2021/06/02 07:51:33;;;;;;;3.35;3.00;;;;;28.20;101358.00;;;;5079887;28;20210;-80
2021/06/02 07:53:59;;;;;;;5.75;3.47;;;;;28.40;101356.00;;;;5067344;28;20211;-81
2021/06/02 07:56:26;;;;;;;4.22;2.92;;;;;28.50;101360.00;;;;5067721;28;20252;-80
2021/06/02 07:58:53;;;;;;;3.55;3.00;;;;;28.60;101362.00;;;;5071672;28;20211;-80
2021/06/02 08:01:20;;;;;;;4.55;3.38;;;;;28.70;101366.00;;;;5084428;28;20198;-79
2021/06/02 08:03:46;;;;;;;4.03;3.53;;;;;28.80;101368.00;;;;5067030;28;20199;-79
2021/06/02 08:06:13;;;;;;;9.43;3.25;;;;;29.00;101368.00;;;;5074671;28;20195;-79
2021/06/02 08:08:41;;;;;;;3.50;3.10;;;;;29.00;101372.00;;;;5067191;28;20595;-80
2021/06/02 08:11:08;;;;;;;3.40;3.10;;;;;29.20;101372.00;;;;5069913;28;20222;-80
2021/06/02 08:13:35;;;;;;;5.32;3.10;;;;;29.30;101373.00;;;;5067162;28;20692;-79
2021/06/02 08:16:02;;;;;;;4.72;3.28;;;;;29.40;101367.00;;;;5072699;28;20190;-78
2021/06/02 08:18:28;;;;;;;7.65;3.40;;;;;29.50;101376.00;;;;5078560;28;20206;-78
2021/06/02 08:20:56;;;;;;;3.80;3.30;;;;;29.60;101371.00;;;;5077961;28;20194;-78
2021/06/02 08:23:22;;;;;;;6.00;3.38;;;;;29.70;101381.00;;;;5079370;28;20230;-79
2021/06/02 08:25:51;;;;;;;3.55;2.97;;;;;29.80;101374.00;;;;5067859;28;20518;-79
2021/06/02 08:28:19;;;;;;;4.40;2.90;;;;;30.00;101388.00;;;;5071632;28;20222;-80
2021/06/02 08:30:46;;;;;;;5.22;3.17;;;;;30.10;101381.00;;;;5066608;28;20237;-80
2021/06/02 08:33:13;;;;;;;4.32;3.10;;;;;30.20;101382.00;;;;5076582;28;20270;-81
2021/06/02 08:35:39;;;;;;;6.22;3.00;;;;;30.30;101386.00;;;;5070971;28;20223;-81
2021/06/02 08:38:06;;;;;;;2.88;2.50;;;;;30.40;101380.00;;;;5073147;28;20203;-80
2021/06/02 08:40:33;;;;;;;3.60;2.83;;;;;30.50;101377.00;;;;5070609;28;20195;-80
2021/06/02 08:43:01;;;;;;;3.20;2.63;;;;;30.70;101378.00;;;;5072154;28;20194;-81
2021/06/02 08:45:28;;;;;;;5.07;2.53;;;;;30.80;101379.00;;;;5074279;28;20228;-81
2021/06/02 08:47:55;;;;;;;4.00;2.70;;;;;30.90;101377.00;;;;5078224;28;20272;-80
2021/06/02 08:50:22;;;;;;;3.58;2.85;;;;;31.00;101379.00;;;;5071640;28;20214;-81
2021/06/02 08:52:50;;;;;;;4.15;2.50;;;;;31.10;101380.00;;;;5085212;28;20886;-80
2021/06/02 08:55:21;;;;;;;4.05;2.88;;;;;31.20;101380.00;;;;5074000;28;20202;-80
2021/06/02 08:57:49;;;;;;;3.85;2.80;;;;;31.30;101376.00;;;;5068958;28;20624;-80
2021/06/02 09:00:20;;;;;;;2.72;2.47;;;;;31.30;101377.00;;;;5070796;28;20207;-81
2021/06/02 09:02:53;;;;;;;2.95;2.20;;;;;31.50;101377.00;;;;5077126;28;20198;-82
2021/06/02 09:05:20;;;;;;;2.30;2.10;;;;;31.60;101387.00;;;;5075462;28;20268;-80
2021/06/02 09:07:50;;;;;;;2.90;2.65;;;;;31.70;101381.00;;;;5072024;28;20729;-80
2021/06/02 09:10:19;;;;;;;2.60;2.10;;;;;31.80;101382.00;;;;5074815;28;20227;-80
2021/06/02 09:12:46;;;;;;;2.92;2.05;;;;;31.90;101379.00;;;;5068460;28;20230;-80
2021/06/02 09:15:19;;;;;;;4.28;2.47;;;;;32.00;101382.00;;;;5068704;28;20230;-80
2021/06/02 09:17:57;;;;;;;2.40;2.20;;;;;32.10;101374.00;;;;5068708;28;20635;-81
2021/06/02 09:20:35;;;;;;;2.35;2.03;;;;;32.10;101384.00;;;;5074803;28;20202;-81
2021/06/02 09:23:22;;;;;;;2.50;2.08;;;;;32.30;101380.00;;;;5074105;28;20581;-80
2021/06/02 09:25:50;;;;;;;2.67;2.00;;;;;32.50;101383.00;;;;5071062;28;20224;-81
2021/06/02 09:28:17;;;;;;;2.30;1.88;;;;;32.60;101379.00;;;;5076026;28;20225;-80
2021/06/02 09:30:44;;;;;;;3.10;2.00;;;;;32.70;101376.00;;;;5070914;28;20215;-81
2021/06/02 09:33:11;;;;;;;2.30;1.90;;;;;32.80;101373.00;;;;5072002;28;20649;-80
2021/06/02 09:35:39;;;;;;;2.17;1.98;;;;;32.90;101378.00;;;;5079052;28;20222;-80
2021/06/02 09:38:07;;;;;;;2.15;1.55;;;;;33.00;101370.00;;;;5069570;28;20213;-81
2021/06/02 09:40:35;;;;;;;3.70;1.70;;;;;33.10;101376.00;;;;5076632;28;20665;-81
2021/06/02 09:43:05;;;;;;;3.33;2.00;;;;;33.20;101374.00;;;;5073531;28;20194;-81
2021/06/02 09:45:32;;;;;;;2.63;1.90;;;;;33.30;101374.00;;;;5076476;28;20206;-80
2021/06/02 09:48:01;;;;;;;2.70;1.90;;;;;33.40;101379.00;;;;5071483;28;20539;-80
2021/06/02 09:50:29;;;;;;;2.28;1.80;;;;;33.50;101370.00;;;;5075415;28;20197;-80
2021/06/02 09:52:57;;;;;;;1.80;1.55;;;;;33.60;101371.00;;;;5081810;28;20252;-81
2021/06/02 09:55:26;;;;;;;1.65;1.45;;;;;33.60;101375.00;;;;5071957;28;20622;-80
2021/06/02 09:58:14;;;;;;;3.40;1.52;;;;;33.50;101384.00;;;;5078676;28;20203;-80
2021/06/02 10:00:43;;;;;;;2.08;1.88;;;;;33.70;101379.00;;;;5075138;28;20190;-81
2021/06/02 10:03:11;;;;;;;3.55;1.60;;;;;33.70;101372.00;;;;5069190;28;20194;-80
2021/06/02 10:05:39;;;;;;;2.35;1.50;;;;;33.80;101380.00;;;;5069142;28;20672;-80
2021/06/02 10:08:08;;;;;;;1.38;1.27;;;;;33.90;101383.00;;;;5083131;28;20790;-79
2021/06/02 10:10:35;;;;;;;15.52;1.50;;;;;33.90;101376.00;;;;5079991;28;20229;-81
2021/06/02 10:13:04;;;;;;;2.45;1.58;;;;;33.90;101386.00;;;;5072015;28;20660;-81
2021/06/02 10:15:35;;;;;;;2.13;1.50;;;;;33.90;101378.00;;;;5074968;28;20189;-81
2021/06/02 10:18:04;;;;;;;3.53;1.70;;;;;34.00;101387.00;;;;5078689;28;20199;-81
2021/06/02 10:20:32;;;;;;;12.57;1.50;;;;;34.00;101386.00;;;;5069810;28;20582;-82
2021/06/02 10:23:00;;;;;;;1.63;1.52;;;;;34.10;101382.00;;;;5078789;28;20190;-81
2021/06/02 10:25:29;;;;;;;2.78;2.05;;;;;34.10;101382.00;;;;5071280;28;20213;-82
2021/06/02 10:27:58;;;;;;;2.30;1.80;;;;;34.10;101383.00;;;;5079335;28;20230;-83
2021/06/02 10:30:26;;;;;;;1.63;1.48;;;;;34.20;101379.00;;;;5073849;28;20203;-82
2021/06/02 10:32:56;;;;;;;2.65;1.45;;;;;34.20;101375.00;;;;5075516;28;20214;-82
2021/06/02 10:35:23;;;;;;;2.05;1.65;;;;;34.20;101375.00;;;;5071955;28;20222;-81
2021/06/02 10:37:51;;;;;;;3.03;1.80;;;;;34.20;101377.00;;;;5068398;28;20209;-82
2021/06/02 10:40:20;;;;;;;3.22;1.60;;;;;34.30;101380.00;;;;5067732;28;20683;-82
2021/06/02 10:42:58;;;;;;;2.28;1.95;;;;;34.30;101382.00;;;;5069875;28;20201;-80
2021/06/02 10:45:29;;;;;;;2.47;1.80;;;;;34.40;101378.00;;;;5073076;28;20190;-80
2021/06/02 10:47:59;;;;;;;3.08;2.03;;;;;34.40;101382.00;;;;5075387;28;20253;-80
2021/06/02 10:50:34;;;;;;;1.83;1.67;;;;;34.40;101386.00;;;;5086218;28;20202;-80
2021/06/02 10:53:02;;;;;;;2.35;1.65;;;;;34.50;101375.00;;;;5084709;28;20267;-80
2021/06/02 10:55:34;;;;;;;2.03;1.67;;;;;34.40;101377.00;;;;5070119;28;20201;-80
2021/06/02 10:58:24;;;;;;;1.70;1.55;;;;;34.40;101381.00;;;;5074566;28;20217;-79
2021/06/02 11:00:53;;;;;;;1.65;1.55;;;;;34.50;101369.00;;;;5074505;28;20202;-80
2021/06/02 11:03:28;;;;;;;2.45;1.63;;;;;34.40;101373.00;;;;5070671;28;20194;-79
2021/06/02 11:05:59;;;;;;;2.80;1.77;;;;;34.40;101368.00;;;;5077654;28;20214;-79
2021/06/02 11:09:04;;;;;;;1.90;1.70;;;;;34.40;101370.00;;;;5077052;28;20237;-80
2021/06/02 11:11:33;;;;;;;2.65;1.75;;;;;34.40;101362.00;;;;5081149;28;20229;-78
2021/06/02 11:14:25;;;;;;;1.73;1.63;;;;;34.30;101361.00;;;;5076496;28;20214;-79
2021/06/02 11:16:57;;;;;;;1.75;1.65;;;;;34.40;101366.00;;;;5067872;28;20634;-78
2021/06/02 11:19:26;;;;;;;2.30;2.10;;;;;34.40;101372.00;;;;5066874;28;20199;-78
2021/06/02 11:22:01;;;;;;;4.07;1.83;;;;;34.40;101360.00;;;;5067627;28;20627;-79
2021/06/02 11:24:42;;;;;;;2.00;1.80;;;;;34.40;101367.00;;;;5077645;28;20198;-76
2021/06/02 11:27:43;;;;;;;2.03;1.50;;;;;34.30;101371.00;;;;5077920;28;20751;-76
2021/06/02 11:30:22;;;;;;;2.22;2.03;;;;;34.40;101370.00;;;;5005214;28;20270;-77
2021/06/02 11:32:56;;;;;;;4.43;2.22;;;;;34.40;101367.00;;;;5015499;28;20203;-76
2021/06/02 11:35:55;;;;;;;1.77;1.67;;;;;34.30;101372.00;;;;5052307;28;20280;-77
2021/06/02 11:38:23;;;;;;;2.17;1.58;;;;;34.40;101369.00;;;;5067487;28;20236;-77
2021/06/02 11:40:50;;;;;;;10.82;2.22;;;;;34.40;101366.00;;;;5081473;28;20205;-77
2021/06/02 11:43:19;;;;;;;3.35;1.92;;;;;34.40;101369.00;;;;5071437;28;20214;-77
2021/06/02 11:45:47;;;;;;;4.30;1.95;;;;;34.40;101368.00;;;;5069766;28;20252;-78
2021/06/02 11:48:19;;;;;;;2.95;1.60;;;;;34.30;101364.00;;;;5076624;28;20233;-78
2021/06/02 11:50:46;;;;;;;2.05;1.67;;;;;34.40;101365.00;;;;5076356;28;20216;-78
2021/06/02 11:53:14;;;;;;;1.58;1.48;;;;;34.30;101363.00;;;;5077215;28;20198;-77
2021/06/02 11:55:40;;;;;;;1.80;1.60;;;;;34.40;101362.00;;;;5076127;28;20206;-78
2021/06/02 11:58:07;;;;;;;2.55;2.10;;;;;34.40;101362.00;;;;5071624;28;20203;-78
2021/06/02 12:00:35;;;;;;;1.80;1.65;;;;;34.40;101362.00;;;;5069127;28;20668;-78
2021/06/02 12:03:04;;;;;;;5.25;1.85;;;;;34.40;101365.00;;;;5076167;28;20206;-78
2021/06/02 12:05:33;;;;;;;2.20;2.00;;;;;34.40;101365.00;;;;5066848;28;20216;-78
2021/06/02 12:08:02;;;;;;;2.55;1.58;;;;;34.40;101361.00;;;;5076525;28;20280;-78
2021/06/02 12:10:32;;;;;;;2.90;2.03;;;;;34.40;101360.00;;;;5075775;28;20253;-78
2021/06/02 12:13:00;;;;;;;4.32;2.17;;;;;34.40;101365.00;;;;5074708;28;20206;-78
2021/06/02 12:15:38;;;;;;;3.20;2.45;;;;;34.40;101368.00;;;;5072398;28;20223;-78
2021/06/02 12:18:05;;;;;;;2.40;2.15;;;;;34.40;101367.00;;;;5087482;28;20572;-78
2021/06/02 12:20:35;;;;;;;1.95;1.80;;;;;34.40;101367.00;;;;5073990;28;20198;-77
2021/06/02 12:23:04;;;;;;;3.13;2.47;;;;;34.40;101361.00;;;;5080966;28;20193;-76
2021/06/02 12:25:34;;;;;;;2.20;2.00;;;;;34.40;101362.00;;;;5071928;28;20259;-76
2021/06/02 12:28:04;;;;;;;1.90;1.80;;;;;34.40;101362.00;;;;5083387;28;20232;-76
2021/06/02 12:30:34;;;;;;;3.05;2.38;;;;;34.40;101359.00;;;;5077627;28;20205;-77
2021/06/02 12:33:04;;;;;;;2.78;2.00;;;;;34.40;101366.00;;;;5069539;28;20198;-77
2021/06/02 12:35:36;;;;;;;2.33;1.95;;;;;34.40;101361.00;;;;5078733;28;20202;-77
2021/06/02 12:38:12;;;;;;;3.88;1.77;;;;;34.40;101358.00;;;;5072379;28;20273;-76
2021/06/02 12:40:43;;;;;;;2.20;2.00;;;;;34.40;101355.00;;;;5066539;28;20202;-76
2021/06/02 12:43:11;;;;;;;5.35;2.33;;;;;34.40;101358.00;;;;5080108;28;20246;-76
2021/06/02 12:45:38;;;;;;;2.45;2.25;;;;;34.40;101352.00;;;;5070088;28;20214;-76
2021/06/02 12:48:07;;;;;;;2.17;1.90;;;;;34.40;101357.00;;;;5078583;28;20722;-75
2021/06/02 12:50:45;;;;;;;2.03;1.83;;;;;34.40;101347.00;;;;5072990;28;20199;-76